Time;durP1;ratioP1;P1;durP2;ratioP2;P2;SDS_P1;SDS_P2;PMS_P1;PMS_P2;Temp;Humidity;BMP_temperature;BMP_pressure;BME280_temperature;BME280_humidity;BME280_pressure;Samples;Min_cycle;Max_cycle;Signal;HPM_P1;HPM_P2
2023/09/16 00:02:16;;;;;;;;;;;;;;;15.25;100.00;95660.00;10518726;28;1509;-72
2023/09/16 00:07:24;;;;;;;;;;;;;;;15.36;100.00;95666.78;10538666;28;2888;-73
2023/09/16 00:12:30;;;;;;;;;;;;;;;15.49;100.00;95665.16;10536351;28;1544;-72
2023/09/16 00:17:40;;;;;;;;;;;;;;;15.40;100.00;95662.38;10535490;28;1966;-73
2023/09/16 00:22:48;;;;;;;;;;;;;;;15.40;100.00;95662.38;10537743;28;1519;-73
2023/09/16 00:27:58;;;;;;;;;;;;;;;15.38;100.00;95656.44;10535405;28;1548;-72
2023/09/16 00:33:11;;;;;;;;;;;;;;;;;;;;;
2023/09/16 00:38:23;;;;;;;;;;;;;;;14.98;100.00;95660.88;10520531;28;1906;-72
2023/09/16 00:43:26;;;;;;;;;;;;;;;15.05;100.00;95656.66;10532100;28;4638;-73
2023/09/16 00:48:30;;;;;;;;;;;;;;;14.87;100.00;95644.06;10528419;28;2201;-73
2023/09/16 00:53:38;;;;;;;;;;;;;;;14.94;100.00;95649.84;10534817;28;2993;-73
2023/09/16 00:58:43;;;;;;;;;;;;;;;15.04;100.00;95656.97;10517736;28;1914;-71
2023/09/16 01:04:14;;;;;;;;;;;;;;;15.24;100.00;95650.28;10535403;28;1887;-71
2023/09/16 01:09:28;;;;;;;;;;;;;;;15.27;100.00;95652.38;10528535;28;1931;-72
2023/09/16 01:14:40;;;;;;;;;;;;;;;15.43;100.00;95660.94;10526295;28;1821;-73
2023/09/16 01:19:45;;;;;;;;;;;;;;;15.27;100.00;95646.94;10532637;28;1967;-72
2023/09/16 01:24:57;;;;;;;;;;;;;;;15.25;100.00;95644.56;10536275;28;1904;-73
2023/09/16 01:30:02;;;;;;;;;;;;;;;15.26;100.00;95639.94;10528607;28;2281;-71
2023/09/16 01:35:07;;;;;;;;;;;;;;;15.23;100.00;95637.84;10534761;28;1867;-72
2023/09/16 01:40:20;;;;;;;;;;;;;;;15.16;100.00;95632.06;10515187;28;4988;-75
2023/09/16 01:45:28;;;;;;;;;;;;;;;15.25;100.00;95643.75;10527209;28;1955;-76
2023/09/16 01:50:37;;;;;;;;;;;;;;;15.26;100.00;95634.53;10510669;28;1885;-73
2023/09/16 01:55:45;;;;;;;;;;;;;;;15.17;100.00;95636.38;10535006;28;1869;-71
2023/09/16 02:00:48;;;;;;;;;;;;;;;15.14;100.00;95633.19;10526202;28;2015;-72
2023/09/16 02:05:56;;;;;;;;;;;;;;;15.09;100.00;95632.50;10517658;28;1962;-72
2023/09/16 02:11:14;;;;;;;;;;;;;;;14.96;100.00;95638.75;10529213;28;2057;-72
2023/09/16 02:16:23;;;;;;;;;;;;;;;14.96;100.00;95644.94;10530578;28;1902;-72
2023/09/16 02:21:26;;;;;;;;;;;;;;;15.11;100.00;95652.72;10522646;28;2031;-74
2023/09/16 02:26:29;;;;;;;;;;;;;;;15.01;100.00;95639.41;10529753;28;1950;-73
2023/09/16 02:31:46;;;;;;;;;;;;;;;14.86;100.00;95643.25;10526460;28;2121;-72
2023/09/16 02:36:50;;;;;;;;;;;;;;;14.84;100.00;95650.09;10526278;28;1993;-73
2023/09/16 02:41:57;;;;;;;;;;;;;;;14.56;100.00;95655.50;10525657;28;4655;-73
2023/09/16 02:47:00;;;;;;;;;;;;;;;14.83;100.00;95649.28;10523516;28;1959;-72
2023/09/16 02:52:03;;;;;;;;;;;;;;;15.06;100.00;95652.81;10529034;28;1988;-73
2023/09/16 02:57:13;;;;;;;;;;;;;;;15.12;100.00;95648.09;10523697;28;1970;-73
2023/09/16 03:02:28;;;;;;;;;;;;;;;15.07;100.00;95659.03;10524072;28;2220;-72
2023/09/16 03:07:32;;;;;;;;;;;;;;;15.08;100.00;95660.66;10528426;28;1937;-72
2023/09/16 03:12:40;;;;;;;;;;;;;;;14.99;100.00;95657.88;10527317;28;1930;-72
2023/09/16 03:18:11;;;;;;;;;;;;;;;15.00;100.00;95647.84;10527481;28;1935;-72
2023/09/16 03:23:14;;;;;;;;;;;;;;;14.96;100.00;95653.06;10489117;28;2117;-74
2023/09/16 03:28:21;;;;;;;;;;;;;;;14.87;100.00;95644.06;10504711;28;3498;-73
2023/09/16 03:33:31;;;;;;;;;;;;;;;14.75;100.00;95643.78;10527988;28;2110;-73
2023/09/16 03:38:44;;;;;;;;;;;;;;;14.70;100.00;95650.09;10527040;28;2211;-71
2023/09/16 03:43:48;;;;;;;;;;;;;;;14.44;100.00;95636.28;10518758;28;4821;-77
2023/09/16 03:49:06;;;;;;;;;;;;;;;14.49;100.00;95648.91;10527609;28;1968;-76
2023/09/16 03:54:13;;;;;;;;;;;;;;;14.40;100.00;95640.66;10513847;28;1962;-75
2023/09/16 03:59:19;;;;;;;;;;;;;;;14.48;100.00;95637.28;10524463;28;1989;-75
2023/09/16 04:04:24;;;;;;;;;;;;;;;14.34;100.00;95641.88;10520145;28;1888;-73
2023/09/16 04:09:27;;;;;;;;;;;;;;;14.45;100.00;95640.56;10509396;28;2730;-74
2023/09/16 04:14:34;;;;;;;;;;;;;;;14.54;100.00;95635.28;10505967;28;1964;-75
2023/09/16 04:19:40;;;;;;;;;;;;;;;14.67;100.00;95639.06;10526746;28;1925;-73
2023/09/16 04:30:03;;;;;;;;;;;;;;;14.74;100.00;95647.59;10514359;28;2303;-73
2023/09/16 04:35:09;;;;;;;;;;;;;;;14.72;100.00;95647.09;10516051;28;2331;-73
2023/09/16 04:40:14;;;;;;;;;;;;;;;14.62;100.00;95652.69;10519871;28;4681;-73
2023/09/16 04:45:21;;;;;;;;;;;;;;;14.52;100.00;95654.53;10529385;28;1885;-73
2023/09/16 04:50:28;;;;;;;;;;;;;;;14.63;100.00;95640.78;10533384;28;1905;-72
2023/09/16 04:55:31;;;;;;;;;;;;;;;14.47;100.00;95641.09;10529540;28;3020;-71
2023/09/16 05:00:38;;;;;;;;;;;;;;;14.37;100.00;95648.56;10533002;28;1979;-72
2023/09/16 05:05:50;;;;;;;;;;;;;;;14.39;100.00;95638.28;10534502;28;2075;-73
2023/09/16 05:10:56;;;;;;;;;;;;;;;14.32;100.00;95630.56;10528455;28;1959;-73
2023/09/16 05:16:07;;;;;;;;;;;;;;;14.34;100.00;95636.47;10528662;28;2028;-74
2023/09/16 05:21:17;;;;;;;;;;;;;;;14.43;100.00;95628.44;10532006;28;2038;-77
2023/09/16 05:26:22;;;;;;;;;;;;;;;14.34;100.00;95641.88;10526724;28;2215;-73
2023/09/16 05:31:25;;;;;;;;;;;;;;;14.51;100.00;95625.88;10531657;28;2222;-73
2023/09/16 05:36:32;;;;;;;;;;;;;;;14.50;100.00;95636.97;10534814;28;1949;-73
2023/09/16 05:41:38;;;;;;;;;;;;;;;14.59;100.00;95641.41;10526980;28;4646;-73
2023/09/16 05:46:41;;;;;;;;;;;;;;;14.60;100.00;95644.91;10531103;28;1894;-72
2023/09/16 05:51:53;;;;;;;;;;;;;;;14.57;100.00;95635.50;10508666;28;1905;-73
2023/09/16 06:02:38;;;;;;;;;;;;;;;14.56;100.00;95639.28;10531134;28;1922;-72
2023/09/16 06:08:09;;;;;;;;;;;;;;;14.87;100.00;95638.63;10530454;28;1899;-72
2023/09/16 06:13:12;;;;;;;;;;;;;;;15.10;100.00;95626.75;10526604;28;1884;-75
2023/09/16 06:18:15;;;;;;;;;;;;;;;15.22;100.00;95633.56;10509132;28;1913;-72
2023/09/16 06:23:20;;;;;;;;;;;;;;;15.11;100.00;95633.78;10509057;28;1943;-73
2023/09/16 06:28:33;;;;;;;;;;;;;;;15.85;100.00;95640.72;10512743;28;1889;-72
2023/09/16 06:33:37;;;;;;;;;;;;;;;16.18;100.00;95623.03;10523505;28;1971;-77
2023/09/16 06:38:41;;;;;;;;;;;;;;;16.69;100.00;95615.38;10531560;28;1963;-78
2023/09/16 06:43:53;;;;;;;;;;;;;;;16.89;100.00;95620.22;10515961;28;4722;-73
2023/09/16 06:49:07;;;;;;;;;;;;;;;17.14;100.00;95602.34;10527378;28;2033;-72
2023/09/16 06:54:13;;;;;;;;;;;;;;;17.29;100.00;95596.44;10528547;28;2195;-72
2023/09/16 06:59:15;;;;;;;;;;;;;;;17.46;100.00;95605.69;10536706;28;1959;-75
2023/09/16 07:04:19;;;;;;;;;;;;;;;17.78;100.00;95591.59;10519239;28;2023;-76
2023/09/16 07:09:26;;;;;;;;;;;;;;;18.00;100.00;95598.72;10538840;28;1990;-81
2023/09/16 07:14:31;;;;;;;;;;;;;;;18.00;100.00;95609.59;10533262;28;1987;-82
2023/09/16 07:19:39;;;;;;;;;;;;;;;18.47;100.00;95612.31;10531497;28;1987;-77
2023/09/16 07:24:44;;;;;;;;;;;;;;;18.53;100.00;95611.00;10509689;28;1909;-77
2023/09/16 07:29:52;;;;;;;;;;;;;;;18.63;100.00;95623.44;10506925;28;2813;-76
2023/09/16 07:34:56;;;;;;;;;;;;;;;18.76;100.00;95629.81;10495882;28;2076;-76
2023/09/16 07:40:01;;;;;;;;;;;;;;;18.81;100.00;95624.19;10511940;28;1973;-75
2023/09/16 07:45:04;;;;;;;;;;;;;;;19.09;100.00;95622.56;10509029;28;1894;-77
2023/09/16 07:50:08;;;;;;;;;;;;;;;19.18;100.00;95633.41;10506891;28;1977;-76
2023/09/16 07:55:19;;;;;;;;;;;;;;;19.34;100.00;95628.97;10513248;28;2035;-78
2023/09/16 08:00:31;;;;;;;;;;;;;;;19.50;100.00;95631.06;10526633;28;1906;-75
2023/09/16 08:05:34;;;;;;;;;;;;;;;19.33;100.00;95638.25;10511943;28;1927;-76
2023/09/16 08:10:41;;;;;;;;;;;;;;;19.80;100.00;95640.78;10525928;28;1968;-77
2023/09/16 08:15:46;;;;;;;;;;;;;;;20.22;100.00;95635.19;10509573;28;3094;-77
2023/09/16 08:20:50;;;;;;;;;;;;;;;20.30;100.00;95631.56;10529233;28;1988;-78
2023/09/16 08:25:54;;;;;;;;;;;;;;;20.40;100.00;95620.19;10515957;28;1920;-79
2023/09/16 08:31:01;;;;;;;;;;;;;;;20.23;100.00;95625.84;10531034;28;1571;-77
2023/09/16 08:36:08;;;;;;;;;;;;;;;20.64;100.00;95619.44;10517165;28;1606;-77
2023/09/16 08:41:11;;;;;;;;;;;;;;;20.57;100.00;95621.97;10530495;28;4806;-77
2023/09/16 08:46:16;;;;;;;;;;;;;;;20.85;100.00;95618.53;10538837;28;1617;-77
2023/09/16 08:51:21;;;;;;;;;;;;;;;21.23;100.00;95607.97;10534761;28;1571;-76
2023/09/16 08:56:27;;;;;;;;;;;;;;;21.40;100.00;95617.88;10515991;28;2832;-78
2023/09/16 09:01:37;;;;;;;;;;;;;;;21.55;100.00;95617.16;10517639;28;1922;-76
2023/09/16 09:06:42;;;;;;;;;;;;;;;21.44;100.00;95618.78;10534935;28;1620;-76
2023/09/16 09:11:48;;;;;;;;;;;;;;;20.94;100.00;95620.00;10498894;28;1853;-76
2023/09/16 09:16:53;;;;;;;;;;;;;;;20.97;100.00;95622.03;10511412;28;1617;-76
2023/09/16 09:21:59;;;;;;;;;;;;;;;21.32;100.00;95616.09;10513054;28;1981;-76
2023/09/16 09:27:06;;;;;;;;;;;;;;;21.20;100.00;95629.75;10529532;28;1983;-76
2023/09/16 09:32:10;;;;;;;;;;;;;;;21.56;100.00;95620.66;10526111;28;1615;-76
2023/09/16 09:37:18;;;;;;;;;;;;;;;21.72;100.00;95612.53;10510562;28;1813;-76
2023/09/16 09:42:24;;;;;;;;;;;;;;;21.90;100.00;95616.56;10531926;28;4749;-75
2023/09/16 09:47:27;;;;;;;;;;;;;;;21.74;100.00;95615.72;10516251;28;1611;-75
2023/09/16 09:52:31;;;;;;;;;;;;;;;22.06;100.00;95616.56;10516129;28;1651;-76
2023/09/16 09:57:35;;;;;;;;;;;;;;;22.11;100.00;95608.94;10534059;28;1862;-76
2023/09/16 10:02:49;;;;;;;;;;;;;;;22.42;100.00;95606.56;10526318;28;1985;-76
2023/09/16 10:08:01;;;;;;;;;;;;;;;22.54;100.00;95599.06;10514515;28;1524;-76
2023/09/16 10:13:07;;;;;;;;;;;;;;;22.61;100.00;95593.75;10530838;28;1896;-76
2023/09/16 10:18:12;;;;;;;;;;;;;;;23.00;100.00;95588.41;10534293;28;1488;-75
2023/09/16 10:23:15;;;;;;;;;;;;;;;22.94;100.00;95587.09;10516698;28;1988;-76
2023/09/16 10:28:18;;;;;;;;;;;;;;;22.90;100.00;95580.72;10528277;28;2717;-77
2023/09/16 10:33:23;;;;;;;;;;;;;;;22.99;100.00;95586.81;10510870;28;1754;-77
2023/09/16 10:38:40;;;;;;;;;;;;;;;22.73;100.00;95589.31;10530648;28;1621;-77
2023/09/16 10:43:46;;;;;;;;;;;;;;;22.89;100.00;95581.88;10495486;28;4897;-77
2023/09/16 10:48:51;;;;;;;;;;;;;;;23.20;100.00;95581.78;10511595;28;1501;-76
2023/09/16 10:53:57;;;;;;;;;;;;;;;22.96;100.00;95584.78;10533439;28;1492;-77
2023/09/16 10:59:28;;;;;;;;;;;;;;;23.34;100.00;95581.28;10527136;28;1979;-78
2023/09/16 11:04:38;;;;;;;;;;;;;;;23.23;100.00;95587.72;10530205;28;1605;-76
2023/09/16 11:09:41;;;;;;;;;;;;;;;23.25;100.00;95588.94;10532047;28;1508;-76
2023/09/16 11:14:53;;;;;;;;;;;;;;;23.31;100.00;95590.25;10527024;28;2843;-77
2023/09/16 11:19:57;;;;;;;;;;;;;;;23.53;100.00;95580.50;10530134;28;1914;-76
2023/09/16 11:25:00;;;;;;;;;;;;;;;23.66;100.00;95576.47;10525889;28;1477;-76
2023/09/16 11:30:06;;;;;;;;;;;;;;;23.52;100.00;95576.19;10506489;28;1476;-78
2023/09/16 11:35:10;;;;;;;;;;;;;;;23.66;100.00;95570.22;10493609;28;1496;-76
2023/09/16 11:40:13;;;;;;;;;;;;;;;23.70;100.00;95560.91;10525310;28;4694;-76
2023/09/16 11:45:20;;;;;;;;;;;;;;;23.80;100.00;95554.03;10524276;28;1624;-77
2023/09/16 11:50:24;;;;;;;;;;;;;;;23.68;100.00;95538.53;10511648;28;1490;-76
2023/09/16 11:55:33;;;;;;;;;;;;;;;23.68;100.00;95537.72;10526536;28;1471;-76
2023/09/16 12:00:36;;;;;;;;;;;;;;;23.86;100.00;95529.84;10509154;28;2998;-77
2023/09/16 12:05:42;;;;;;;;;;;;;;;23.99;100.00;95536.72;10506253;28;1486;-76
2023/09/16 12:10:55;;;;;;;;;;;;;;;24.05;100.00;95532.53;10521505;28;1618;-76
2023/09/16 12:16:00;;;;;;;;;;;;;;;23.97;100.00;95536.28;10504185;28;1872;-77
2023/09/16 12:21:05;;;;;;;;;;;;;;;23.78;100.00;95530.84;10506726;28;1914;-76
2023/09/16 12:26:09;;;;;;;;;;;;;;;24.05;100.00;95528.97;10500800;28;1546;-76
2023/09/16 12:31:14;;;;;;;;;;;;;;;24.06;100.00;95525.88;10507003;28;1500;-76
2023/09/16 12:36:17;;;;;;;;;;;;;;;24.01;100.00;95537.16;10528725;28;1600;-76
2023/09/16 12:41:25;;;;;;;;;;;;;;;23.99;100.00;95523.00;10521586;28;4646;-76
2023/09/16 12:46:32;;;;;;;;;;;;;;;24.08;100.00;95520.00;10501033;28;2366;-77
2023/09/16 12:51:34;;;;;;;;;;;;;;;24.06;100.00;95528.63;10514432;28;1441;-76
2023/09/16 12:56:39;;;;;;;;;;;;;;;24.03;100.00;95526.59;10531002;28;1520;-75
2023/09/16 13:01:53;;;;;;;;;;;;;;;24.22;100.00;95514.75;10524072;28;2012;-77
2023/09/16 13:06:59;;;;;;;;;;;;;;;24.16;100.00;95510.72;10519797;28;1529;-76
2023/09/16 13:12:09;;;;;;;;;;;;;;;23.95;100.00;95520.19;10534608;28;1504;-74
2023/09/16 13:17:20;;;;;;;;;;;;;;;23.87;100.00;95506.72;10528299;28;1959;-75
2023/09/16 13:22:33;;;;;;;;;;;;;;;23.88;100.00;95503.59;10533106;28;1988;-76
2023/09/16 13:27:37;;;;;;;;;;;;;;;23.86;100.00;95502.38;10529052;28;1555;-76
2023/09/16 13:32:41;;;;;;;;;;;;;;;23.95;100.00;95486.44;10530927;28;2531;-76
2023/09/16 13:37:46;;;;;;;;;;;;;;;23.95;100.00;95489.19;10499006;28;1554;-75
2023/09/16 13:42:51;;;;;;;;;;;;;;;23.95;100.00;95484.50;10532933;28;4789;-77
2023/09/16 13:47:58;;;;;;;;;;;;;;;23.87;100.00;95487.50;10533369;28;1872;-76
2023/09/16 13:53:03;;;;;;;;;;;;;;;23.94;100.00;95479.38;10535277;28;1512;-75
2023/09/16 13:58:09;;;;;;;;;;;;;;;24.01;100.00;95474.00;10532963;28;1936;-76
2023/09/16 14:03:14;;;;;;;;;;;;;;;23.97;100.00;95467.66;10512998;28;1977;-76
2023/09/16 14:08:20;;;;;;;;;;;;;;;24.05;100.00;95472.13;10532982;28;1445;-77
2023/09/16 14:13:26;;;;;;;;;;;;;;;24.09;100.00;95474.91;10513707;28;1450;-74
2023/09/16 14:18:31;;;;;;;;;;;;;;;24.07;100.00;95469.78;10531834;28;2408;-74
2023/09/16 14:23:36;;;;;;;;;;;;;;;24.17;100.00;95460.91;10530641;28;1917;-73
2023/09/16 14:28:39;;;;;;;;;;;;;;;24.03;100.00;95463.44;10528621;28;1771;-76
2023/09/16 14:33:51;;;;;;;;;;;;;;;23.98;100.00;95467.31;10520476;28;2150;-75
2023/09/16 14:39:09;;;;;;;;;;;;;;;24.01;100.00;95465.75;10508591;28;1897;-74
2023/09/16 14:44:15;;;;;;;;;;;;;;;24.07;100.00;95472.53;10512233;28;4793;-77
2023/09/16 14:49:23;;;;;;;;;;;;;;;23.91;100.00;95466.38;10527049;28;1917;-75
2023/09/16 14:54:27;;;;;;;;;;;;;;;23.88;100.00;95461.63;10525449;28;1976;-77
2023/09/16 14:59:31;;;;;;;;;;;;;;;23.84;100.00;95464.31;10522848;28;2262;-78
2023/09/16 15:04:36;;;;;;;;;;;;;;;23.86;100.00;95470.25;10506991;28;1971;-78
2023/09/16 15:09:40;;;;;;;;;;;;;;;23.86;100.00;95477.69;10513775;28;1648;-75
2023/09/16 15:14:44;;;;;;;;;;;;;;;23.90;100.00;95473.81;10518248;28;1952;-76
2023/09/16 15:19:50;;;;;;;;;;;;;;;23.75;100.00;95479.44;10521799;28;1515;-76
2023/09/16 15:24:53;;;;;;;;;;;;;;;23.62;100.00;95479.59;10527049;28;1914;-76
2023/09/16 15:29:59;;;;;;;;;;;;;;;23.72;100.00;95479.00;10523831;28;1837;-76
2023/09/16 15:35:04;;;;;;;;;;;;;;;23.64;100.00;95473.75;10531666;28;1492;-76
2023/09/16 15:40:09;;;;;;;;;;;;;;;23.67;100.00;95478.53;10529830;28;4804;-76
2023/09/16 15:45:17;;;;;;;;;;;;;;;23.61;100.00;95480.78;10539825;28;1890;-76
2023/09/16 15:50:21;;;;;;;;;;;;;;;23.63;100.00;95483.16;10526001;28;1492;-75
2023/09/16 15:55:27;;;;;;;;;;;;;;;23.51;100.00;95475.84;10526984;28;1426;-77
2023/09/16 16:00:30;;;;;;;;;;;;;;;23.50;100.00;95477.00;10506813;28;2950;-74
2023/09/16 16:05:34;;;;;;;;;;;;;;;23.40;100.00;95481.13;10527649;28;1922;-77
2023/09/16 16:10:38;;;;;;;;;;;;;;;23.45;100.00;95480.03;10512626;28;1516;-74
2023/09/16 16:15:42;;;;;;;;;;;;;;;23.35;100.00;95484.19;10524108;28;1943;-76
2023/09/16 16:20:45;;;;;;;;;;;;;;;23.22;100.00;95492.91;10514923;28;1910;-75
2023/09/16 16:25:54;;;;;;;;;;;;;;;23.09;100.00;95497.72;10524986;28;1523;-76
2023/09/16 16:36:19;;;;;;;;;;;;;;;22.96;100.00;95494.31;10504003;28;1505;-75
2023/09/16 16:41:23;;;;;;;;;;;;;;;22.87;100.00;95491.03;10531363;28;1949;-76
2023/09/16 16:46:26;;;;;;;;;;;;;;;22.74;100.00;95501.28;10533662;28;1572;-79
2023/09/16 16:51:30;;;;;;;;;;;;;;;22.66;100.00;95503.06;10517789;28;1460;-76
2023/09/16 16:56:34;;;;;;;;;;;;;;;22.55;100.00;95495.75;10514951;28;1548;-78
2023/09/16 17:01:37;;;;;;;;;;;;;;;22.43;100.00;95493.94;10531499;28;3100;-78
2023/09/16 17:06:41;;;;;;;;;;;;;;;22.32;100.00;95501.09;10529814;28;1889;-80
2023/09/16 17:11:47;;;;;;;;;;;;;;;22.10;100.00;95506.06;10530638;28;1880;-76
2023/09/16 17:16:55;;;;;;;;;;;;;;;21.91;100.00;95514.16;10512605;28;1854;-79
2023/09/16 17:22:03;;;;;;;;;;;;;;;21.68;100.00;95511.22;10529379;28;1988;-74
2023/09/16 17:27:08;;;;;;;;;;;;;;;21.64;100.00;95504.06;10530286;28;1878;-75
2023/09/16 17:32:12;;;;;;;;;;;;;;;21.48;100.00;95504.03;10533855;28;1962;-76
2023/09/16 17:37:21;;;;;;;;;;;;;;;21.40;100.00;95516.72;10541142;28;1821;-76
2023/09/16 17:42:27;;;;;;;;;;;;;;;21.25;100.00;95522.91;10542577;28;4729;-74
2023/09/16 17:47:35;;;;;;;;;;;;;;;21.00;100.00;95531.19;10535835;28;3081;-75
2023/09/16 17:52:38;;;;;;;;;;;;;;;20.90;100.00;95531.66;10540640;28;1881;-74
2023/09/16 17:57:42;;;;;;;;;;;;;;;20.69;100.00;95536.50;10512147;28;1902;-75
2023/09/16 18:02:47;;;;;;;;;;;;;;;20.65;100.00;95541.84;10511587;28;1946;-73
2023/09/16 18:07:50;;;;;;;;;;;;;;;20.40;100.00;95553.88;10534499;28;1898;-73
2023/09/16 18:13:00;;;;;;;;;;;;;;;20.37;100.00;95549.13;10524545;28;2138;-72
2023/09/16 18:18:05;;;;;;;;;;;;;;;20.35;100.00;95559.56;10524726;28;1889;-73
2023/09/16 18:23:16;;;;;;;;;;;;;;;20.17;100.00;95572.66;10530519;28;1979;-72
2023/09/16 18:28:30;;;;;;;;;;;;;;;19.97;100.00;95575.09;10507628;28;2019;-75
2023/09/16 18:33:35;;;;;;;;;;;;;;;19.78;100.00;95583.00;10526951;28;3311;-72
2023/09/16 18:38:38;;;;;;;;;;;;;;;19.70;100.00;95598.34;10508241;28;2112;-72
2023/09/16 18:43:43;;;;;;;;;;;;;;;19.60;100.00;95589.81;10512697;28;4658;-71
2023/09/16 18:48:49;;;;;;;;;;;;;;;19.50;100.00;95598.34;10525635;28;2107;-73
2023/09/16 18:53:57;;;;;;;;;;;;;;;19.33;100.00;95605.53;10502244;28;1866;-76
2023/09/16 18:59:00;;;;;;;;;;;;;;;19.34;100.00;95600.88;10531683;28;1826;-72
2023/09/16 19:04:05;;;;;;;;;;;;;;;19.18;100.00;95597.97;10517929;28;1917;-76
2023/09/16 19:09:11;;;;;;;;;;;;;;;19.18;100.00;95608.88;10494736;28;1895;-76
2023/09/16 19:14:15;;;;;;;;;;;;;;;19.07;100.00;95604.94;10522556;28;2012;-66
2023/09/16 19:19:25;;;;;;;;;;;;;;;19.01;100.00;95604.34;10509891;28;1828;-67
2023/09/16 19:24:29;;;;;;;;;;;;;;;18.95;100.00;95604.88;10506684;28;1979;-65
2023/09/16 19:29:32;;;;;;;;;;;;;;;18.89;100.00;95598.81;10512776;28;1974;-68
2023/09/16 19:34:35;;;;;;;;;;;;;;;18.90;100.00;95614.84;10503164;28;2438;-67
2023/09/16 19:39:40;;;;;;;;;;;;;;;18.80;100.00;95608.97;10526048;28;1755;-68
2023/09/16 19:44:45;;;;;;;;;;;;;;;18.79;100.00;95608.19;10525569;28;4737;-66
2023/09/16 19:49:49;;;;;;;;;;;;;;;18.79;100.00;95612.84;10530765;28;1851;-67
2023/09/16 19:54:54;;;;;;;;;;;;;;;18.73;100.00;95614.94;10525295;28;1827;-66
2023/09/16 20:00:03;;;;;;;;;;;;;;;18.71;100.00;95603.59;10513954;28;1686;-67
2023/09/16 20:05:06;;;;;;;;;;;;;;;18.68;100.00;95604.22;10514672;28;1977;-66
2023/09/16 20:10:14;;;;;;;;;;;;;;;18.57;100.00;95595.59;10530863;28;1898;-66
2023/09/16 20:15:20;;;;;;;;;;;;;;;18.64;100.00;95606.00;10530342;28;1893;-68
2023/09/16 20:20:23;;;;;;;;;;;;;;;18.54;100.00;95606.38;10518587;28;1896;-66
2023/09/16 20:25:30;;;;;;;;;;;;;;;18.45;100.00;95608.31;10513752;28;2015;-66
2023/09/16 20:30:36;;;;;;;;;;;;;;;18.55;100.00;95607.97;10509763;28;1878;-69
2023/09/16 20:35:39;;;;;;;;;;;;;;;18.51;100.00;95601.56;10528055;28;2665;-66
2023/09/16 20:40:45;;;;;;;;;;;;;;;18.57;100.00;95608.41;10516487;28;4744;-67
2023/09/16 20:45:48;;;;;;;;;;;;;;;18.44;100.00;95617.63;10531775;28;1914;-66
2023/09/16 20:50:53;;;;;;;;;;;;;;;18.51;100.00;95607.00;10532901;28;1827;-67
2023/09/16 20:55:57;;;;;;;;;;;;;;;18.49;100.00;95612.78;10511234;28;1898;-71
2023/09/16 21:01:00;;;;;;;;;;;;;;;18.54;100.00;95612.59;10531107;28;1950;-70
2023/09/16 21:06:04;;;;;;;;;;;;;;;18.52;100.00;95609.44;10531150;28;1989;-69
2023/09/16 21:11:08;;;;;;;;;;;;;;;18.64;100.00;95616.91;10526159;28;1898;-67
2023/09/16 21:16:14;;;;;;;;;;;;;;;18.46;100.00;95624.34;10526424;28;2033;-77
2023/09/16 21:21:17;;;;;;;;;;;;;;;18.52;100.00;95612.16;10512172;28;2545;-74
2023/09/16 21:26:21;;;;;;;;;;;;;;;18.53;100.00;95607.50;10524619;28;1922;-74
2023/09/16 21:31:24;;;;;;;;;;;;;;;18.48;100.00;95603.03;10537128;28;1896;-66
2023/09/16 21:36:28;;;;;;;;;;;;;;;18.47;100.00;95600.66;10514371;28;1953;-67
2023/09/16 21:41:32;;;;;;;;;;;;;;;18.42;100.00;95609.00;10511156;28;4773;-67
2023/09/16 21:46:39;;;;;;;;;;;;;;;18.34;100.00;95603.25;10513903;28;1918;-67
2023/09/16 21:51:42;;;;;;;;;;;;;;;18.36;100.00;95601.00;10507371;28;1838;-67
2023/09/16 21:56:45;;;;;;;;;;;;;;;18.24;100.00;95603.59;10530723;28;1944;-66
2023/09/16 22:01:56;;;;;;;;;;;;;;;18.33;100.00;95595.44;10530207;28;1854;-66
2023/09/16 22:06:59;;;;;;;;;;;;;;;18.36;100.00;95597.47;10488353;28;2615;-66
2023/09/16 22:12:02;;;;;;;;;;;;;;;18.28;100.00;95601.06;10516830;28;1873;-67
2023/09/16 22:17:05;;;;;;;;;;;;;;;18.24;100.00;95597.38;10514996;28;2011;-65
2023/09/16 22:22:09;;;;;;;;;;;;;;;18.28;100.00;95607.28;10510998;28;1913;-65
2023/09/16 22:27:13;;;;;;;;;;;;;;;18.22;100.00;95605.88;10497420;28;1962;-66
2023/09/16 22:32:16;;;;;;;;;;;;;;;18.20;100.00;95608.13;10512609;28;1883;-66
2023/09/16 22:37:20;;;;;;;;;;;;;;;18.23;100.00;95612.91;10514341;28;1899;-67
2023/09/16 22:42:24;;;;;;;;;;;;;;;18.24;100.00;95608.25;10512249;28;4721;-66
2023/09/16 22:47:29;;;;;;;;;;;;;;;18.20;100.00;95616.28;10510946;28;1918;-66
2023/09/16 22:52:32;;;;;;;;;;;;;;;18.22;100.00;95616.75;10532498;28;2722;-66
2023/09/16 22:57:35;;;;;;;;;;;;;;;18.15;100.00;95616.47;10509966;28;1862;-66
2023/09/16 23:02:38;;;;;;;;;;;;;;;18.13;100.00;95617.88;10531048;28;1961;-67
2023/09/16 23:07:42;;;;;;;;;;;;;;;18.11;100.00;95618.22;10529179;28;1730;-67
2023/09/16 23:12:46;;;;;;;;;;;;;;;18.14;100.00;95620.31;10521945;28;2001;-68
2023/09/16 23:17:48;;;;;;;;;;;;;;;18.01;100.00;95621.31;10526205;28;1878;-66
2023/09/16 23:22:55;;;;;;;;;;;;;;;17.96;100.00;95626.91;10525475;28;1922;-69
2023/09/16 23:27:59;;;;;;;;;;;;;;;17.94;100.00;95621.00;10504110;28;1875;-68
2023/09/16 23:33:03;;;;;;;;;;;;;;;17.99;100.00;95618.09;10521611;28;1881;-66
2023/09/16 23:38:06;;;;;;;;;;;;;;;18.01;100.00;95618.59;10511744;28;2566;-65
2023/09/16 23:43:10;;;;;;;;;;;;;;;18.00;100.00;95616.97;10522012;28;4860;-65
2023/09/16 23:48:17;;;;;;;;;;;;;;;17.98;100.00;95624.66;10516969;28;2027;-67
2023/09/16 23:53:19;;;;;;;;;;;;;;;17.88;100.00;95619.56;10527445;28;1878;-66
2023/09/16 23:58:25;;;;;;;;;;;;;;;17.91;100.00;95624.38;10523758;28;1754;-66
